Terminal Aerodrome Forecast
Issued by NWS Cleveland, OH

Home | Current Version | Previous Version | Text Only | Print | Product List | Glossary On
Versions: 1 2 3 4 5 6 7 8 9 10 11 12 13 14 15
000
FTUS41 KCLE 291722
TAFCAK
TAF
KCAK 291722Z 2918/3018 34005KT P6SM VCTS BKN045CB
      TEMPO 2920/2923 2SM SHRA BR BKN030 OVC050
     FM300000 08004KT P6SM SCT060 BKN120
     FM300400 VRB03KT 2SM BR SCT025 BKN120
     FM301400 14005KT P6SM BKN050 OVC120=

USA.gov is the U.S. government's official web portal to all federal, state and local government web resources and services.